createdAt,value
2019-02-14T00:02:17.861Z,5.83
2019-02-14T00:05:06.105Z,6.67
2019-02-14T00:07:53.536Z,5.57
2019-02-14T00:10:41.054Z,6.73
2019-02-14T00:13:28.687Z,7.47
2019-02-14T00:16:16.109Z,6.80
2019-02-14T00:19:03.532Z,7.63
2019-02-14T00:21:51.017Z,7.80
2019-02-14T00:24:38.890Z,9.53
2019-02-14T00:27:26.621Z,8.07
2019-02-14T00:30:14.047Z,8.33
2019-02-14T00:33:01.778Z,5.77
2019-02-14T00:35:49.408Z,7.30
2019-02-14T00:38:37.558Z,7.50
2019-02-14T00:41:25.073Z,7.57
2019-02-14T00:44:13.011Z,7.60
2019-02-14T00:47:00.845Z,7.60
2019-02-14T00:49:48.268Z,6.77
2019-02-14T00:52:36.001Z,7.60
2019-02-14T00:55:23.734Z,7.70
2019-02-14T00:58:11.154Z,6.57
2019-02-14T01:00:58.477Z,7.10
2019-02-14T01:03:46.309Z,8.77
2019-02-14T01:06:33.629Z,7.37
2019-02-14T01:09:21.055Z,6.30
2019-02-14T01:12:09.202Z,8.10
2019-02-14T01:14:56.621Z,10.67
2019-02-14T01:17:43.840Z,7.53
2019-02-14T01:20:31.163Z,6.47
2019-02-14T01:23:18.380Z,7.03
2019-02-14T01:26:06.011Z,6.83
2019-02-14T01:28:53.497Z,7.17
2019-02-14T01:31:41.033Z,10.00
2019-02-14T01:34:28.998Z,7.67
2019-02-14T01:37:16.525Z,6.83
2019-02-14T01:40:05.281Z,7.90
2019-02-14T01:42:52.502Z,6.60
2019-02-14T01:45:40.294Z,8.23
2019-02-14T01:48:27.692Z,7.83
2019-02-14T01:51:14.773Z,9.13
2019-02-14T01:54:02.097Z,5.57
2019-02-14T01:56:49.701Z,7.07
2019-02-14T01:59:37.146Z,8.00
2019-02-14T02:02:24.366Z,6.80
2019-02-14T02:05:12.098Z,9.13
2019-02-14T02:07:59.833Z,8.13
2019-02-14T02:10:47.067Z,9.60
2019-02-14T02:13:34.467Z,7.37
2019-02-14T02:16:22.202Z,8.07
2019-02-14T02:19:09.422Z,6.23
2019-02-14T02:21:56.845Z,7.20
2019-02-14T02:24:44.270Z,8.20
2019-02-14T02:27:31.899Z,8.53
2019-02-14T02:30:19.219Z,7.23
2019-02-14T02:33:06.747Z,6.80
2019-02-14T02:36:00.327Z,7.87
2019-02-14T02:38:43.596Z,8.20
2019-02-14T02:41:30.862Z,9.23
2019-02-14T02:44:18.081Z,7.60
2019-02-14T02:47:06.226Z,7.53
2019-02-14T02:49:53.578Z,7.20
2019-02-14T02:52:41.073Z,8.93
2019-02-14T02:55:28.701Z,7.00
2019-02-14T02:58:15.921Z,8.50
2019-02-14T03:01:03.560Z,10.23
2019-02-14T03:03:50.869Z,9.80
2019-02-14T03:06:38.809Z,8.13
2019-02-14T03:09:26.230Z,6.50
2019-02-14T03:12:13.870Z,7.23
2019-02-14T03:15:00.977Z,9.30
2019-02-14T03:17:48.910Z,8.53
2019-02-14T03:20:36.230Z,9.57
2019-02-14T03:23:23.654Z,8.23
2019-02-14T03:26:10.879Z,9.07
2019-02-14T03:28:58.405Z,8.87
2019-02-14T03:31:46.138Z,10.97
2019-02-14T03:34:33.558Z,7.80
2019-02-14T03:37:21.289Z,10.17
2019-02-14T03:40:11.286Z,8.90
2019-02-14T03:42:59.211Z,8.07
2019-02-14T03:45:46.664Z,8.27
2019-02-14T03:48:34.520Z,9.97
2019-02-14T03:51:22.026Z,8.93
2019-02-14T03:54:09.214Z,9.23
2019-02-14T03:56:56.974Z,9.30
2019-02-14T03:59:44.572Z,11.27
2019-02-14T04:02:32.451Z,11.20
2019-02-14T04:05:20.246Z,8.77
2019-02-14T04:08:07.767Z,9.93
2019-02-14T04:10:56.550Z,8.90
2019-02-14T04:13:43.843Z,11.03
2019-02-14T04:16:31.470Z,8.07
2019-02-14T04:19:18.997Z,10.23
2019-02-14T04:22:06.115Z,8.03
2019-02-14T04:24:53.435Z,8.53
2019-02-14T04:27:41.473Z,7.70
2019-02-14T04:30:29.412Z,8.33
2019-02-14T04:33:17.452Z,10.27
2019-02-14T04:36:05.182Z,7.43
2019-02-14T04:38:52.604Z,9.27
2019-02-14T04:41:40.231Z,7.33
2019-02-14T04:44:27.303Z,10.73
2019-02-14T04:47:14.875Z,7.67
2019-02-14T04:50:02.508Z,11.30
2019-02-14T04:52:50.442Z,9.03
2019-02-14T04:55:39.164Z,10.33
2019-02-14T04:58:26.609Z,11.57
2019-02-14T05:01:14.046Z,10.03
2019-02-14T05:04:01.985Z,9.13
2019-02-14T05:06:49.611Z,10.93
2019-02-14T05:09:37.140Z,10.00
2019-02-14T05:12:26.211Z,9.40
2019-02-14T05:15:13.935Z,8.87
2019-02-14T05:18:01.384Z,8.90
2019-02-14T05:20:49.393Z,12.07
2019-02-14T05:23:36.509Z,8.93
2019-02-14T05:26:23.831Z,9.90
2019-02-14T05:29:11.051Z,10.20
2019-02-14T05:31:58.476Z,11.70
2019-02-14T05:34:45.693Z,9.33
2019-02-14T05:37:33.323Z,10.13
2019-02-14T05:40:20.544Z,10.17
2019-02-14T05:43:08.585Z,8.87
2019-02-14T05:46:15.384Z,10.70
2019-02-14T05:49:03.009Z,9.80
2019-02-14T05:51:50.742Z,8.93
2019-02-14T05:54:38.062Z,9.63
2019-02-14T05:57:27.362Z,10.07
2019-02-14T06:00:19.680Z,11.57
2019-02-14T06:03:07.299Z,12.17
2019-02-14T06:05:54.338Z,9.33
2019-02-14T06:08:42.044Z,12.80
2019-02-14T06:11:29.675Z,7.87
2019-02-14T06:14:17.094Z,9.37
2019-02-14T06:17:04.518Z,9.50
2019-02-14T06:19:51.947Z,9.17
2019-02-14T06:22:39.776Z,9.13
2019-02-14T06:25:27.202Z,14.47
2019-02-14T06:28:15.067Z,12.83
2019-02-14T06:31:04.611Z,10.67
2019-02-14T06:33:52.239Z,9.90
2019-02-14T06:36:39.969Z,10.33
2019-02-14T06:39:27.333Z,14.63
2019-02-14T06:42:14.921Z,10.63
2019-02-14T06:45:02.555Z,12.60
2019-02-14T06:47:50.177Z,12.77
2019-02-14T06:50:37.924Z,11.07
2019-02-14T06:53:25.844Z,12.90
2019-02-14T06:56:13.171Z,10.10
2019-02-14T06:59:00.800Z,11.03
2019-02-14T07:01:48.117Z,14.60
2019-02-14T07:04:35.750Z,11.30
2019-02-14T07:07:23.596Z,13.23
2019-02-14T07:10:12.406Z,11.77
2019-02-14T07:12:59.557Z,11.03
2019-02-14T07:15:47.079Z,12.73
2019-02-14T07:18:34.200Z,10.13
2019-02-14T07:21:23.468Z,17.00
2019-02-14T07:24:10.990Z,15.07
2019-02-14T07:27:00.194Z,15.10
2019-02-14T07:29:47.681Z,14.87
2019-02-14T07:32:34.592Z,13.50
2019-02-14T07:35:22.531Z,11.83
2019-02-14T07:38:09.951Z,12.63
2019-02-14T07:40:57.582Z,11.70
2019-02-14T07:43:46.175Z,13.43
2019-02-14T07:46:33.556Z,12.93
2019-02-14T07:49:20.879Z,13.30
2019-02-14T07:52:08.307Z,12.77
2019-02-14T07:54:55.763Z,15.50
2019-02-14T07:57:43.304Z,16.30
2019-02-14T08:00:31.085Z,12.03
2019-02-14T08:03:18.509Z,13.43
2019-02-14T08:06:06.449Z,12.33
2019-02-14T08:08:54.281Z,11.53
2019-02-14T08:11:41.399Z,11.90
2019-02-14T08:14:28.617Z,11.93
2019-02-14T08:17:16.661Z,10.57
2019-02-14T08:20:06.467Z,10.33
2019-02-14T08:22:53.964Z,11.67
2019-02-14T08:25:41.793Z,10.53
2019-02-14T08:28:29.228Z,12.13
2019-02-14T08:31:16.451Z,12.27
2019-02-14T08:34:03.815Z,11.67
2019-02-14T08:36:51.270Z,13.37
2019-02-14T08:39:38.819Z,11.70
2019-02-14T08:42:26.247Z,10.77
2019-02-14T08:45:13.966Z,11.43
2019-02-14T08:48:01.596Z,12.37
2019-02-14T08:50:48.956Z,12.10
2019-02-14T08:53:36.038Z,15.00
2019-02-14T08:56:23.566Z,20.27
2019-02-14T08:59:10.986Z,15.30
2019-02-14T09:01:58.510Z,14.07
2019-02-14T09:04:46.039Z,11.33
2019-02-14T09:07:33.426Z,29.47
2019-02-14T09:10:21.295Z,17.87
2019-02-14T09:13:17.012Z,15.80
2019-02-14T09:15:59.316Z,45.60
2019-02-14T09:18:46.948Z,28.67
2019-02-14T09:21:34.434Z,18.63
2019-02-14T09:24:23.136Z,13.03
2019-02-14T09:27:10.447Z,11.03
2019-02-14T09:29:57.925Z,9.93
2019-02-14T09:32:45.518Z,9.03
2019-02-14T09:35:32.718Z,9.23
2019-02-14T09:38:20.054Z,36.13
2019-02-14T09:41:07.775Z,29.60
2019-02-14T09:43:56.392Z,11.43
2019-02-14T09:46:44.034Z,8.33
2019-02-14T09:49:31.123Z,9.90
2019-02-14T09:52:18.461Z,7.77
2019-02-14T09:55:07.968Z,9.00
2019-02-14T09:57:55.174Z,9.17
2019-02-14T10:00:42.573Z,9.43
2019-02-14T10:03:30.338Z,8.87
2019-02-14T10:06:17.728Z,6.90
2019-02-14T10:09:07.623Z,8.93
2019-02-14T10:11:54.867Z,8.40
2019-02-14T10:14:42.843Z,9.07
2019-02-14T10:17:30.409Z,9.27
2019-02-14T10:20:18.706Z,8.83
2019-02-14T10:23:06.325Z,6.97
2019-02-14T10:25:55.174Z,8.13
2019-02-14T10:28:42.419Z,6.90
2019-02-14T10:31:29.506Z,6.63
2019-02-14T10:34:16.805Z,9.60
2019-02-14T10:37:04.297Z,7.13
2019-02-14T10:39:51.672Z,8.60
2019-02-14T10:42:39.107Z,6.93
2019-02-14T10:45:26.350Z,7.87
2019-02-14T10:48:13.350Z,6.80
2019-02-14T10:51:00.651Z,8.20
2019-02-14T10:53:47.699Z,7.33
2019-02-14T10:56:35.038Z,7.77
2019-02-14T10:59:22.231Z,6.40
2019-02-14T11:02:10.305Z,8.07
2019-02-14T11:04:58.029Z,6.03
2019-02-14T11:07:45.138Z,6.37
2019-02-14T11:10:32.402Z,7.83
2019-02-14T11:13:19.758Z,7.07
2019-02-14T11:16:09.630Z,7.47
2019-02-14T11:18:56.692Z,7.17
2019-02-14T11:21:43.949Z,8.03
2019-02-14T11:24:31.271Z,7.43
2019-02-14T11:27:18.399Z,7.20
2019-02-14T11:30:09.376Z,7.53
2019-02-14T11:32:56.624Z,7.93
2019-02-14T11:35:43.897Z,7.13
2019-02-14T11:38:40.121Z,8.50
2019-02-14T11:41:20.004Z,8.60
2019-02-14T11:44:07.069Z,8.87
2019-02-14T11:46:54.459Z,8.83
2019-02-14T11:49:41.777Z,8.80
2019-02-14T11:52:29.166Z,8.00
2019-02-14T11:55:16.893Z,8.07
2019-02-14T11:58:04.464Z,8.40
2019-02-14T12:00:51.898Z,6.93
2019-02-14T12:03:39.614Z,6.93
2019-02-14T12:06:26.958Z,7.93
2019-02-14T12:09:14.190Z,9.87
2019-02-14T12:12:01.313Z,8.53
2019-02-14T12:14:48.821Z,7.60
2019-02-14T12:17:36.484Z,8.93
2019-02-14T12:20:23.751Z,8.40
2019-02-14T12:23:11.222Z,6.33
2019-02-14T12:26:00.266Z,6.70
2019-02-14T12:28:48.195Z,8.90
2019-02-14T12:31:35.630Z,6.87
2019-02-14T12:34:22.914Z,6.97
2019-02-14T12:37:10.325Z,5.40
2019-02-14T12:39:57.660Z,5.87
2019-02-14T12:42:45.349Z,7.97
2019-02-14T12:45:32.681Z,6.63
2019-02-14T12:48:20.070Z,4.87
2019-02-14T12:51:07.293Z,8.33
2019-02-14T12:53:54.838Z,6.37
2019-02-14T12:56:42.544Z,6.33
2019-02-14T12:59:29.965Z,8.07
2019-02-14T13:02:17.190Z,6.03
2019-02-14T13:05:05.902Z,5.77
2019-02-14T13:07:53.625Z,6.47
2019-02-14T13:10:41.127Z,5.13
2019-02-14T13:13:28.624Z,6.93
2019-02-14T13:16:16.257Z,6.27
2019-02-14T13:19:04.188Z,5.30
2019-02-14T13:21:51.814Z,5.70
2019-02-14T13:24:39.341Z,6.03
2019-02-14T13:27:27.075Z,8.20
2019-02-14T13:30:17.527Z,7.20
2019-02-14T13:33:04.589Z,6.90
2019-02-14T13:35:52.318Z,5.30
2019-02-14T13:38:39.844Z,5.97
2019-02-14T13:41:31.362Z,5.10
2019-02-14T13:44:17.758Z,5.77
2019-02-14T13:47:05.393Z,4.90
2019-02-14T13:49:52.927Z,6.97
2019-02-14T13:52:40.403Z,5.37
2019-02-14T13:55:28.432Z,5.33
2019-02-14T13:58:16.012Z,5.23
2019-02-14T14:01:03.644Z,4.43
2019-02-14T14:03:51.270Z,4.70
2019-02-14T14:06:38.699Z,4.03
2019-02-14T14:09:26.523Z,4.57
2019-02-14T14:12:14.056Z,5.87
2019-02-14T14:15:01.679Z,5.03
2019-02-14T14:17:49.002Z,5.33
2019-02-14T14:20:37.182Z,4.47
2019-02-14T14:23:24.798Z,4.77
2019-02-14T14:26:12.195Z,3.83
2019-02-14T14:28:59.932Z,2.87
2019-02-14T14:31:47.771Z,3.33
2019-02-14T14:34:35.827Z,4.13
2019-02-14T14:37:23.330Z,4.33
2019-02-14T14:40:15.742Z,2.93
2019-02-14T14:43:16.819Z,2.73
2019-02-14T14:46:06.488Z,3.90
2019-02-14T14:48:54.326Z,4.43
2019-02-14T14:51:41.744Z,4.87
2019-02-14T14:54:29.171Z,3.27
2019-02-14T14:57:16.796Z,2.43
2019-02-14T15:00:04.992Z,3.67
2019-02-14T15:02:52.469Z,3.90
2019-02-14T15:05:39.483Z,3.30
2019-02-14T15:08:26.908Z,3.27
2019-02-14T15:11:14.433Z,4.37
2019-02-14T15:14:02.164Z,4.00
2019-02-14T15:16:49.585Z,4.67
2019-02-14T15:19:37.125Z,3.37
2019-02-14T15:22:24.648Z,4.40
2019-02-14T15:25:11.859Z,3.67
2019-02-14T15:28:00.001Z,4.13
2019-02-14T15:30:47.115Z,6.80
2019-02-14T15:33:34.949Z,4.83
2019-02-14T15:36:24.333Z,4.13
2019-02-14T15:39:11.442Z,4.87
2019-02-14T15:41:58.863Z,3.63
2019-02-14T15:44:46.397Z,3.50
2019-02-14T15:47:33.916Z,6.97
2019-02-14T15:50:21.752Z,4.67
2019-02-14T15:53:09.276Z,3.33
2019-02-14T15:55:56.805Z,4.00
2019-02-14T15:58:44.431Z,4.07
2019-02-14T16:01:31.963Z,4.53
2019-02-14T16:04:20.814Z,4.20
2019-02-14T16:07:07.828Z,6.83
2019-02-14T16:09:55.463Z,6.63
2019-02-14T16:12:45.318Z,4.47
2019-02-14T16:15:33.730Z,5.50
2019-02-14T16:18:23.211Z,6.27
2019-02-14T16:21:10.790Z,6.03
2019-02-14T16:23:58.727Z,7.70
2019-02-14T16:26:46.048Z,8.17
2019-02-14T16:29:33.813Z,3.80
2019-02-14T16:32:21.468Z,5.53
2019-02-14T16:35:09.446Z,5.07
2019-02-14T16:37:57.071Z,8.97
2019-02-14T16:40:44.598Z,8.13
2019-02-14T16:43:32.135Z,11.20
2019-02-14T16:46:19.560Z,13.43
2019-02-14T16:49:07.088Z,10.27
2019-02-14T16:51:54.612Z,10.10
2019-02-14T16:54:42.233Z,10.37
2019-02-14T16:57:29.817Z,11.87
2019-02-14T17:00:19.008Z,10.27
2019-02-14T17:03:06.655Z,9.57
2019-02-14T17:05:54.604Z,12.40
2019-02-14T17:08:42.052Z,9.13
2019-02-14T17:11:29.752Z,10.10
2019-02-14T17:14:17.177Z,9.17
2019-02-14T17:17:04.904Z,6.57
2019-02-14T17:19:52.427Z,8.00
2019-02-14T17:22:40.163Z,8.50
2019-02-14T17:25:27.277Z,6.50
2019-02-14T17:28:14.705Z,6.70
2019-02-14T17:31:01.934Z,8.83
2019-02-14T17:33:49.758Z,9.80
2019-02-14T17:36:37.080Z,12.53
2019-02-14T17:39:24.705Z,9.87
2019-02-14T17:42:12.232Z,9.93
2019-02-14T17:45:00.327Z,8.20
2019-02-14T17:47:47.389Z,9.37
2019-02-14T17:50:35.118Z,7.43
2019-02-14T17:53:22.659Z,7.33
2019-02-14T17:56:09.967Z,5.47
2019-02-14T17:58:57.292Z,10.20
2019-02-14T18:01:44.714Z,4.40
2019-02-14T18:04:32.143Z,11.53
2019-02-14T18:07:19.974Z,10.93
2019-02-14T18:10:12.003Z,8.30
2019-02-14T18:12:59.327Z,6.57
2019-02-14T18:15:46.548Z,4.83
2019-02-14T18:18:34.172Z,5.70
2019-02-14T18:21:21.812Z,5.13
2019-02-14T18:24:08.919Z,6.07
2019-02-14T18:26:56.752Z,4.60
2019-02-14T18:29:44.076Z,7.13
2019-02-14T18:32:31.907Z,8.57
2019-02-14T18:35:19.127Z,6.70
2019-02-14T18:38:06.651Z,6.77
2019-02-14T18:40:54.580Z,6.10
2019-02-14T18:43:42.118Z,7.50
2019-02-14T18:46:29.801Z,5.50
2019-02-14T18:49:17.273Z,7.13
2019-02-14T18:52:05.001Z,6.10
2019-02-14T18:54:52.634Z,6.53
2019-02-14T18:57:40.158Z,8.07
2019-02-14T19:00:28.096Z,5.57
2019-02-14T19:03:15.330Z,6.33
2019-02-14T19:06:02.869Z,6.83
2019-02-14T19:08:50.474Z,5.63
2019-02-14T19:11:37.899Z,9.30
2019-02-14T19:14:25.732Z,6.73
2019-02-14T19:17:13.154Z,6.67
2019-02-14T19:20:00.370Z,5.80
2019-02-14T19:22:48.101Z,7.30
2019-02-14T19:25:35.703Z,8.10
2019-02-14T19:28:23.264Z,8.10
2019-02-14T19:31:10.991Z,8.47
2019-02-14T19:33:58.211Z,8.17
2019-02-14T19:36:45.644Z,7.93
2019-02-14T19:39:33.165Z,6.43
2019-02-14T19:42:20.686Z,6.10
2019-02-14T19:45:10.464Z,6.17
2019-02-14T19:47:57.992Z,7.10
2019-02-14T19:50:45.825Z,6.07
2019-02-14T19:53:33.149Z,6.17
2019-02-14T19:56:20.777Z,8.23
2019-02-14T19:59:08.508Z,6.57
2019-02-14T20:01:56.150Z,7.13
2019-02-14T20:04:43.711Z,8.53
2019-02-14T20:07:31.086Z,6.53
2019-02-14T20:10:18.614Z,8.00
2019-02-14T20:13:06.452Z,7.67
2019-02-14T20:15:54.485Z,8.00
2019-02-14T20:18:42.023Z,8.83
2019-02-14T20:21:29.647Z,7.23
2019-02-14T20:24:16.832Z,6.43
2019-02-14T20:27:04.390Z,6.83
2019-02-14T20:29:51.813Z,10.07
2019-02-14T20:32:39.542Z,7.53
2019-02-14T20:35:27.591Z,6.77
2019-02-14T20:38:14.917Z,7.27
2019-02-14T20:41:02.429Z,8.17
2019-02-14T20:43:50.468Z,6.43
2019-02-14T20:46:38.214Z,7.57
2019-02-14T20:49:25.763Z,7.50
2019-02-14T20:52:12.917Z,7.60
2019-02-14T20:55:25.790Z,9.30
2019-02-14T20:58:12.930Z,8.03
2019-02-14T21:01:00.543Z,8.50
2019-02-14T21:03:47.966Z,7.67
2019-02-14T21:06:35.387Z,7.43
2019-02-14T21:09:23.008Z,8.33
2019-02-14T21:12:10.437Z,7.80
2019-02-14T21:14:58.370Z,7.67
2019-02-14T21:17:46.101Z,7.63
2019-02-14T21:20:33.626Z,7.53
2019-02-14T21:23:20.758Z,7.03
2019-02-14T21:26:07.971Z,8.87
2019-02-14T21:28:55.822Z,8.50
2019-02-14T21:31:43.121Z,10.50
2019-02-14T21:34:30.861Z,9.03
2019-02-14T21:37:18.076Z,9.27
2019-02-14T21:40:09.307Z,9.70
2019-02-14T21:42:56.720Z,10.03
2019-02-14T21:45:44.715Z,10.93
2019-02-14T21:48:32.286Z,9.37
2019-02-14T21:51:20.072Z,11.23
2019-02-14T21:54:07.025Z,10.73
2019-02-14T21:56:55.067Z,9.13
2019-02-14T21:59:42.689Z,9.90
2019-02-14T22:02:30.537Z,11.50
2019-02-14T22:05:23.908Z,8.43
2019-02-14T22:08:07.523Z,9.33
2019-02-14T22:10:55.014Z,8.83
2019-02-14T22:13:42.594Z,7.30
2019-02-14T22:16:29.883Z,9.77
2019-02-14T22:19:17.213Z,9.43
2019-02-14T22:22:05.048Z,9.57
2019-02-14T22:24:52.779Z,9.60
2019-02-14T22:27:40.513Z,8.63
2019-02-14T22:30:27.936Z,8.27
2019-02-14T22:33:15.460Z,8.83
2019-02-14T22:36:02.577Z,9.53
2019-02-14T22:38:50.412Z,11.30
2019-02-14T22:41:38.244Z,9.47
2019-02-14T22:44:26.078Z,9.90
2019-02-14T22:47:13.301Z,10.83
2019-02-14T22:50:00.925Z,9.43
2019-02-14T22:52:48.249Z,11.93
2019-02-14T22:55:35.570Z,9.50
2019-02-14T22:58:22.993Z,9.17
2019-02-14T23:01:11.330Z,9.97
2019-02-14T23:03:59.019Z,11.00
2019-02-14T23:06:46.811Z,10.83
2019-02-14T23:09:33.922Z,9.03
2019-02-14T23:12:21.037Z,8.90
2019-02-14T23:15:09.177Z,10.50
2019-02-14T23:17:56.712Z,10.77
2019-02-14T23:20:44.433Z,12.27
2019-02-14T23:23:31.963Z,12.03
2019-02-14T23:26:19.487Z,9.90
2019-02-14T23:29:06.711Z,13.77
2019-02-14T23:31:54.438Z,10.07
2019-02-14T23:34:42.274Z,13.07
2019-02-14T23:37:29.800Z,10.80
2019-02-14T23:40:17.534Z,11.93
2019-02-14T23:43:07.304Z,10.70
2019-02-14T23:45:54.425Z,10.03
2019-02-14T23:48:41.545Z,9.47
2019-02-14T23:51:29.279Z,10.43
2019-02-14T23:54:16.299Z,12.80
2019-02-14T23:57:04.222Z,9.23
2019-02-14T23:59:52.158Z,9.53
